createdAt,value
2022-08-03T00:00:41.964Z,101685.04
2022-08-03T00:02:54.997Z,101685.48
2022-08-03T00:05:09.576Z,101683.64
2022-08-03T00:07:22.845Z,101686.99
2022-08-03T00:09:36.011Z,101679.52
2022-08-03T00:11:49.142Z,101679.11
2022-08-03T00:14:04.566Z,101680.30
2022-08-03T00:16:17.910Z,101670.05
2022-08-03T00:18:31.019Z,101667.40
2022-08-03T00:20:44.147Z,101662.89
2022-08-03T00:22:57.461Z,101660.91
2022-08-03T00:25:11.882Z,101663.94
2022-08-03T00:27:24.863Z,101664.25
2022-08-03T00:29:59.958Z,101667.48
2022-08-03T00:32:11.409Z,101660.33
2022-08-03T00:34:34.575Z,101660.27
2022-08-03T00:36:58.067Z,101662.16
2022-08-03T00:39:11.201Z,101656.49
2022-08-03T00:41:24.191Z,101664.64
2022-08-03T00:43:37.095Z,101662.71
2022-08-03T00:45:50.302Z,101664.51
2022-08-03T00:48:05.148Z,101667.46
2022-08-03T00:50:18.780Z,101660.61
2022-08-03T00:52:31.849Z,101653.92
2022-08-03T00:54:45.271Z,101653.68
2022-08-03T00:57:00.159Z,101655.09
2022-08-03T00:59:13.719Z,101650.85
2022-08-03T01:01:30.633Z,101652.29
2022-08-03T01:03:45.942Z,101649.32
2022-08-03T01:06:04.086Z,101645.04
2022-08-03T01:08:24.024Z,101644.39
2022-08-03T01:10:45.301Z,101646.77
2022-08-03T01:13:07.815Z,101643.10
2022-08-03T01:15:47.662Z,101640.66
2022-08-03T01:18:06.854Z,101641.27
2022-08-03T01:20:21.856Z,101634.92
2022-08-03T01:23:01.505Z,101637.61
2022-08-03T01:25:28.218Z,101636.04
2022-08-03T01:27:55.576Z,101631.97
2022-08-03T01:30:11.365Z,101625.09
2022-08-03T01:33:02.617Z,101623.86
2022-08-03T01:35:08.355Z,101619.73
2022-08-03T01:37:25.682Z,101621.04
2022-08-03T01:39:41.040Z,101620.16
2022-08-03T01:42:00.451Z,101622.06
2022-08-03T01:44:29.735Z,101625.42
2022-08-03T01:46:47.720Z,101619.64
2022-08-03T01:49:09.146Z,101624.06
2022-08-03T01:51:24.537Z,101616.60
2022-08-03T01:53:58.340Z,101618.36
2022-08-03T01:56:12.495Z,101617.69
2022-08-03T01:58:27.998Z,101619.74
2022-08-03T02:00:42.196Z,101618.73
2022-08-03T02:02:58.378Z,101623.41
2022-08-03T02:05:15.274Z,101622.79
2022-08-03T02:07:30.147Z,101625.02
2022-08-03T02:09:44.351Z,101624.05
2022-08-03T02:11:59.365Z,101621.70
2022-08-03T02:14:13.086Z,101622.19
2022-08-03T02:16:27.332Z,101622.13
2022-08-03T02:18:43.169Z,101619.52
2022-08-03T02:20:57.884Z,101622.10
2022-08-03T02:23:11.365Z,101620.93
2022-08-03T02:25:24.764Z,101617.95
2022-08-03T02:27:43.465Z,101618.91
2022-08-03T02:30:09.528Z,101620.80
2022-08-03T02:32:24.889Z,101618.54
2022-08-03T02:34:40.129Z,101618.95
2022-08-03T02:36:57.172Z,101614.75
2022-08-03T02:39:13.417Z,101612.86
2022-08-03T02:41:32.901Z,101608.14
2022-08-03T02:44:05.889Z,101610.52
2022-08-03T02:46:21.684Z,101613.42
2022-08-03T02:48:40.561Z,101607.25
2022-08-03T02:50:55.109Z,101604.87
2022-08-03T02:53:10.653Z,101607.84
2022-08-03T02:55:27.201Z,101609.89
2022-08-03T02:57:41.460Z,101607.84
2022-08-03T02:59:55.183Z,101609.06
2022-08-03T03:02:09.146Z,101611.84
2022-08-03T03:04:24.198Z,101606.76
2022-08-03T03:06:43.794Z,101606.11
2022-08-03T03:09:00.908Z,101608.77
2022-08-03T03:11:15.229Z,101602.34
2022-08-03T03:13:28.907Z,101607.36
2022-08-03T03:15:42.498Z,101608.11
2022-08-03T03:17:56.641Z,101604.06
2022-08-03T03:20:11.360Z,101605.95
2022-08-03T03:22:25.490Z,101602.81
2022-08-03T03:24:39.507Z,101603.85
2022-08-03T03:26:53.841Z,101608.83
2022-08-03T03:29:07.829Z,101612.30
2022-08-03T03:31:20.996Z,101615.43
2022-08-03T03:33:34.421Z,101612.48
2022-08-03T03:35:48.716Z,101610.95
2022-08-03T03:38:02.194Z,101608.77
2022-08-03T03:40:17.332Z,101608.16
2022-08-03T03:42:31.407Z,101612.49
2022-08-03T03:44:44.803Z,101611.09
2022-08-03T03:46:57.999Z,101613.52
2022-08-03T03:49:11.709Z,101615.02
2022-08-03T03:51:24.848Z,101613.33
2022-08-03T03:53:37.989Z,101610.48
2022-08-03T03:55:59.297Z,101617.95
2022-08-03T03:58:15.926Z,101619.34
2022-08-03T04:00:30.024Z,101622.36
2022-08-03T04:02:43.017Z,101622.60
2022-08-03T04:05:12.413Z,101625.16
2022-08-03T04:07:43.537Z,101626.55
2022-08-03T04:10:15.040Z,101627.69
2022-08-03T04:12:29.925Z,101631.38
2022-08-03T04:14:44.526Z,101632.92
2022-08-03T04:17:01.310Z,101633.21
2022-08-03T04:19:22.636Z,101636.47
2022-08-03T04:21:37.285Z,101641.91
2022-08-03T04:23:54.628Z,101643.52
2022-08-03T04:26:10.823Z,101647.16
2022-08-03T04:28:29.556Z,101652.64
2022-08-03T04:30:49.480Z,101654.15
2022-08-03T04:33:04.601Z,101657.53
2022-08-03T04:35:18.019Z,101653.88
2022-08-03T04:37:38.957Z,101652.59
2022-08-03T04:39:57.619Z,101654.48
2022-08-03T04:42:15.590Z,101655.92
2022-08-03T04:44:30.663Z,101656.84
2022-08-03T04:46:50.472Z,101652.55
2022-08-03T04:49:06.863Z,101650.81
2022-08-03T04:51:20.613Z,101655.93
2022-08-03T04:53:34.011Z,101653.77
2022-08-03T04:55:47.363Z,101650.21
2022-08-03T04:58:00.721Z,101650.92
2022-08-03T05:00:15.559Z,101649.45
2022-08-03T05:02:29.178Z,101647.64
2022-08-03T05:04:47.601Z,101645.86
2022-08-03T05:07:00.652Z,101639.27
2022-08-03T05:09:50.735Z,101642.73
2022-08-03T05:11:59.158Z,101643.41
2022-08-03T05:14:12.180Z,101645.36
2022-08-03T05:16:27.103Z,101643.39
2022-08-03T05:18:40.126Z,101645.23
2022-08-03T05:20:53.345Z,101642.08
2022-08-03T05:23:06.547Z,101642.70
2022-08-03T05:25:22.259Z,101641.10
2022-08-03T05:27:37.489Z,101641.89
2022-08-03T05:29:51.556Z,101639.54
2022-08-03T05:32:08.206Z,101643.64
2022-08-03T05:34:21.541Z,101641.09
2022-08-03T05:36:34.735Z,101645.73
2022-08-03T05:38:48.050Z,101644.33
2022-08-03T05:41:21.855Z,101642.35
2022-08-03T05:43:35.111Z,101643.02
2022-08-03T05:45:49.887Z,101643.92
2022-08-03T05:48:22.938Z,101641.44
2022-08-03T05:50:42.476Z,101643.48
2022-08-03T05:52:58.828Z,101637.16
2022-08-03T05:55:13.565Z,101637.38
2022-08-03T05:57:26.709Z,101630.54
2022-08-03T05:59:57.734Z,101635.95
2022-08-03T06:02:11.912Z,101635.58
2022-08-03T06:04:25.228Z,101634.17
2022-08-03T06:06:38.289Z,101633.54
2022-08-03T06:08:51.784Z,101632.11
2022-08-03T06:11:05.088Z,101630.45
2022-08-03T06:13:18.199Z,101632.78
2022-08-03T06:15:32.021Z,101633.71
2022-08-03T06:17:53.172Z,101637.38
2022-08-03T06:20:06.219Z,101634.47
2022-08-03T06:22:19.486Z,101632.09
2022-08-03T06:24:34.565Z,101632.16
2022-08-03T06:26:47.629Z,101635.66
2022-08-03T06:29:00.744Z,101635.41
2022-08-03T06:31:17.069Z,101632.77
2022-08-03T06:34:31.243Z,101633.89
2022-08-03T06:36:03.277Z,101639.35
2022-08-03T06:38:16.251Z,101635.94
2022-08-03T06:40:32.545Z,101635.33
2022-08-03T06:42:45.586Z,101636.27
2022-08-03T06:44:59.447Z,101640.86
2022-08-03T06:47:12.905Z,101637.89
2022-08-03T06:49:26.155Z,101639.04
2022-08-03T06:52:06.263Z,101637.65
2022-08-03T06:54:13.540Z,101635.96
2022-08-03T06:56:26.567Z,101635.80
2022-08-03T06:58:39.639Z,101636.69
2022-08-03T07:00:52.698Z,101637.51
2022-08-03T07:03:05.769Z,101636.94
2022-08-03T07:05:19.057Z,101632.73
2022-08-03T07:07:32.105Z,101631.91
2022-08-03T07:09:56.951Z,101634.06
2022-08-03T07:12:12.413Z,101632.58
2022-08-03T07:14:26.268Z,101632.20
2022-08-03T07:16:39.243Z,101633.27
2022-08-03T07:18:52.266Z,101635.57
2022-08-03T07:21:05.301Z,101636.15
2022-08-03T07:23:19.395Z,101634.04
2022-08-03T07:25:32.470Z,101638.89
2022-08-03T07:27:51.777Z,101637.64
2022-08-03T07:30:05.338Z,101638.55
2022-08-03T07:32:18.725Z,101638.36
2022-08-03T07:34:31.973Z,101640.45
2022-08-03T07:36:45.180Z,101640.70
2022-08-03T07:38:59.344Z,101633.52
2022-08-03T07:41:12.300Z,101634.34
2022-08-03T07:43:25.530Z,101638.06
2022-08-03T07:45:38.695Z,101642.39
2022-08-03T07:47:53.284Z,101641.35
2022-08-03T07:50:08.613Z,101633.80
2022-08-03T07:52:37.995Z,101638.63
2022-08-03T07:54:51.107Z,101642.98
2022-08-03T07:57:04.087Z,101642.93
2022-08-03T07:59:17.093Z,101643.00
2022-08-03T08:01:30.286Z,101643.73
2022-08-03T08:03:53.277Z,101643.58
2022-08-03T08:06:06.880Z,101642.08
2022-08-03T08:08:21.325Z,101640.43
2022-08-03T08:10:35.366Z,101636.09
2022-08-03T08:12:48.385Z,101631.79
2022-08-03T08:15:01.370Z,101634.72
2022-08-03T08:17:14.593Z,101630.61
2022-08-03T08:19:27.527Z,101627.58
2022-08-03T08:21:53.478Z,101626.48
2022-08-03T08:24:19.768Z,101620.69
2022-08-03T08:26:33.466Z,101619.77
2022-08-03T08:28:46.484Z,101618.41
2022-08-03T08:30:59.508Z,101620.05
2022-08-03T08:33:22.418Z,101619.35
2022-08-03T08:35:36.837Z,101616.59
2022-08-03T08:37:50.900Z,101617.02
2022-08-03T08:40:05.428Z,101616.13
2022-08-03T08:42:19.001Z,101614.59
2022-08-03T08:44:32.513Z,101610.89
2022-08-03T08:46:46.329Z,101612.77
2022-08-03T08:49:00.327Z,101615.73
2022-08-03T08:51:20.088Z,101610.44
2022-08-03T08:53:36.417Z,101606.27
2022-08-03T08:55:59.445Z,101605.45
2022-08-03T08:58:19.787Z,101609.55
2022-08-03T09:00:34.321Z,101604.88
2022-08-03T09:02:49.022Z,101608.20
2022-08-03T09:05:07.160Z,101607.84
2022-08-03T09:07:21.001Z,101603.50
2022-08-03T09:10:08.364Z,101599.34
2022-08-03T09:12:36.490Z,101600.66
2022-08-03T09:14:54.853Z,101605.27
2022-08-03T09:17:17.371Z,101604.11
2022-08-03T09:19:30.764Z,101605.54
2022-08-03T09:21:43.792Z,101600.54
2022-08-03T09:24:03.297Z,101599.89
2022-08-03T09:26:23.183Z,101600.27
2022-08-03T09:29:01.152Z,101600.64
2022-08-03T09:31:13.578Z,101603.34
2022-08-03T09:33:26.590Z,101600.44
2022-08-03T09:35:54.833Z,101598.16
2022-08-03T09:38:19.322Z,101601.31
2022-08-03T09:40:42.920Z,101604.81
2022-08-03T09:43:04.016Z,101603.35
2022-08-03T09:45:32.182Z,101597.88
2022-08-03T09:47:45.354Z,101598.75
2022-08-03T09:50:05.543Z,101597.05
2022-08-03T09:52:38.215Z,101598.14
2022-08-03T09:54:59.164Z,101596.30
2022-08-03T09:57:12.682Z,101596.70
2022-08-03T09:59:32.700Z,101597.75
2022-08-03T10:01:46.745Z,101599.17
2022-08-03T10:04:05.291Z,101594.08
2022-08-03T10:06:25.477Z,101595.68
2022-08-03T10:08:42.209Z,101596.56
2022-08-03T10:10:59.087Z,101593.63
2022-08-03T10:13:12.223Z,101590.36
2022-08-03T10:16:23.348Z,101592.62
2022-08-03T10:17:58.588Z,101592.05
2022-08-03T10:20:14.045Z,101587.55
2022-08-03T10:22:30.897Z,101586.89
2022-08-03T10:24:50.756Z,101590.47
2022-08-03T10:27:08.351Z,101587.17
2022-08-03T10:29:26.099Z,101587.73
2022-08-03T10:31:54.740Z,101588.93
2022-08-03T10:34:15.145Z,101594.23
2022-08-03T10:36:30.808Z,101593.09
2022-08-03T10:38:53.966Z,101596.20
2022-08-03T10:41:08.625Z,101598.88
2022-08-03T10:43:25.927Z,101600.67
2022-08-03T10:45:43.074Z,101602.15
2022-08-03T10:47:57.023Z,101598.20
2022-08-03T10:50:11.781Z,101597.23
2022-08-03T10:52:33.779Z,101595.75
2022-08-03T10:55:10.176Z,101595.05
2022-08-03T10:57:39.489Z,101592.94
2022-08-03T11:00:08.703Z,101591.64
2022-08-03T11:02:21.926Z,101589.96
2022-08-03T11:04:35.619Z,101589.10
2022-08-03T11:06:49.554Z,101580.92
2022-08-03T11:09:21.413Z,101584.61
2022-08-03T11:11:34.438Z,101584.41
2022-08-03T11:14:05.923Z,101582.86
2022-08-03T11:16:27.230Z,101583.34
2022-08-03T11:18:40.307Z,101580.59
2022-08-03T11:20:55.626Z,101577.30
2022-08-03T11:23:08.770Z,101576.31
2022-08-03T11:25:54.076Z,101574.46
2022-08-03T11:28:15.258Z,101569.58
2022-08-03T11:30:32.055Z,101572.77
2022-08-03T11:33:03.849Z,101573.63
2022-08-03T11:35:19.343Z,101571.85
2022-08-03T11:37:33.420Z,101567.23
2022-08-03T11:39:48.113Z,101566.52
2022-08-03T11:42:01.264Z,101568.64
2022-08-03T11:44:34.210Z,101573.53
2022-08-03T11:46:47.312Z,101566.27
2022-08-03T11:49:10.241Z,101568.09
2022-08-03T11:51:31.169Z,101570.83
2022-08-03T11:53:48.912Z,101567.64
2022-08-03T11:56:05.833Z,101574.29
2022-08-03T11:59:17.313Z,101580.11
2022-08-03T12:01:09.937Z,101577.63
2022-08-03T12:03:24.182Z,101580.02
2022-08-03T12:05:51.603Z,101577.75
2022-08-03T12:08:06.938Z,101580.13
2022-08-03T12:10:21.121Z,101580.50
2022-08-03T12:12:34.031Z,101575.19
2022-08-03T12:14:53.187Z,101574.41
2022-08-03T12:17:06.462Z,101569.63
2022-08-03T12:19:21.618Z,101574.48
2022-08-03T12:21:35.018Z,101575.16
2022-08-03T12:23:48.338Z,101575.52
2022-08-03T12:26:08.589Z,101579.30
2022-08-03T12:28:36.376Z,101580.50
2022-08-03T12:30:52.603Z,101577.40
2022-08-03T12:33:14.558Z,101577.59
2022-08-03T12:35:30.581Z,101576.52
2022-08-03T12:37:43.580Z,101578.06
2022-08-03T12:40:05.339Z,101575.76
2022-08-03T12:42:19.709Z,101574.02
2022-08-03T12:44:38.774Z,101575.20
2022-08-03T12:47:01.254Z,101577.09
2022-08-03T12:49:16.576Z,101572.82
2022-08-03T12:51:29.939Z,101572.30
2022-08-03T12:53:43.276Z,101573.38
2022-08-03T12:56:08.309Z,101575.53
2022-08-03T12:58:38.455Z,101575.36
2022-08-03T13:01:01.110Z,101573.73
2022-08-03T13:03:39.386Z,101579.39
2022-08-03T13:05:51.323Z,101582.14
2022-08-03T13:08:04.293Z,101576.96
2022-08-03T13:10:30.836Z,101581.13
2022-08-03T13:12:52.980Z,101574.71
2022-08-03T13:15:06.534Z,101572.17
2022-08-03T13:17:21.386Z,101565.89
2022-08-03T13:19:34.829Z,101565.30
2022-08-03T13:22:01.385Z,101566.46
2022-08-03T13:24:17.620Z,101567.21
2022-08-03T13:26:30.630Z,101561.39
2022-08-03T13:28:43.753Z,101559.82
2022-08-03T13:30:57.301Z,101555.77
2022-08-03T13:33:11.940Z,101562.06
2022-08-03T13:35:24.922Z,101564.31
2022-08-03T13:37:38.449Z,101566.73
2022-08-03T13:39:59.617Z,101566.31
2022-08-03T13:42:13.814Z,101565.55
2022-08-03T13:44:29.165Z,101569.22
2022-08-03T13:46:43.115Z,101568.17
2022-08-03T13:48:56.091Z,101563.16
2022-08-03T13:51:11.654Z,101556.45
2022-08-03T13:53:35.289Z,101558.48
2022-08-03T13:55:48.284Z,101563.05
2022-08-03T13:58:06.131Z,101565.08
2022-08-03T14:00:28.098Z,101566.31
2022-08-03T14:02:42.646Z,101562.99
2022-08-03T14:04:55.874Z,101566.54
2022-08-03T14:07:09.122Z,101564.92
2022-08-03T14:09:22.113Z,101565.88
2022-08-03T14:12:07.336Z,101557.11
2022-08-03T14:14:08.499Z,101563.42
2022-08-03T14:16:21.627Z,101564.60
2022-08-03T14:18:34.697Z,101569.95
2022-08-03T14:20:56.352Z,101565.70
2022-08-03T14:23:10.477Z,101561.95
2022-08-03T14:25:23.895Z,101562.06
2022-08-03T14:27:37.018Z,101561.52
2022-08-03T14:29:50.177Z,101566.21
2022-08-03T14:32:12.202Z,101565.94
2022-08-03T14:34:25.968Z,101565.77
2022-08-03T14:36:40.584Z,101567.67
2022-08-03T14:38:54.684Z,101569.58
2022-08-03T14:41:19.703Z,101565.61
2022-08-03T14:43:34.397Z,101568.11
2022-08-03T14:45:47.398Z,101568.67
2022-08-03T14:50:30.563Z,101566.77
2022-08-03T14:50:42.086Z,101569.25
2022-08-03T14:52:57.685Z,101569.05
2022-08-03T14:55:13.019Z,101570.95
2022-08-03T14:57:26.243Z,101569.70
2022-08-03T14:59:56.235Z,101570.05
2022-08-03T15:02:21.219Z,101568.23
2022-08-03T15:04:36.632Z,101564.30
2022-08-03T15:06:51.319Z,101562.88
2022-08-03T15:09:22.544Z,101561.39
2022-08-03T15:11:36.388Z,101559.84
2022-08-03T15:13:49.553Z,101562.57
2022-08-03T15:16:02.647Z,101564.48
2022-08-03T15:18:16.253Z,101567.83
2022-08-03T15:20:42.685Z,101570.09
2022-08-03T15:22:56.856Z,101571.41
2022-08-03T15:26:29.083Z,101568.75
2022-08-03T15:28:02.744Z,101572.91
2022-08-03T15:30:18.321Z,101572.09
2022-08-03T15:32:31.383Z,101581.57
2022-08-03T15:34:50.804Z,101580.45
2022-08-03T15:37:04.043Z,101577.91
2022-08-03T15:39:28.282Z,101574.47
2022-08-03T15:41:41.477Z,101574.20
2022-08-03T15:43:55.636Z,101573.84
2022-08-03T15:48:41.757Z,101573.41
2022-08-03T15:50:55.787Z,101570.71
2022-08-03T15:53:08.874Z,101568.60
2022-08-03T15:55:22.022Z,101567.41
2022-08-03T15:57:35.209Z,101562.80
2022-08-03T16:00:09.583Z,101562.98
2022-08-03T16:02:22.852Z,101556.90
2022-08-03T16:04:36.004Z,101560.50
2022-08-03T16:06:49.158Z,101557.95
2022-08-03T16:09:02.494Z,101556.85
2022-08-03T16:11:15.628Z,101555.39
2022-08-03T16:14:13.375Z,101558.95
2022-08-03T16:16:05.038Z,101560.09
2022-08-03T16:18:17.960Z,101556.84
2022-08-03T16:20:35.112Z,101559.50
2022-08-03T16:22:52.384Z,101558.69
2022-08-03T16:25:05.589Z,101563.92
2022-08-03T16:27:56.547Z,101564.73
2022-08-03T16:30:03.237Z,101564.92
2022-08-03T16:32:16.205Z,101564.89
2022-08-03T16:34:29.356Z,101565.74
2022-08-03T16:36:42.560Z,101565.33
2022-08-03T16:38:56.068Z,101562.63
2022-08-03T16:41:09.384Z,101565.19
2022-08-03T16:43:23.301Z,101563.59
2022-08-03T16:45:36.551Z,101563.78
2022-08-03T16:48:01.694Z,101560.65
2022-08-03T16:50:20.091Z,101564.03
2022-08-03T16:52:34.047Z,101562.56
2022-08-03T16:54:50.559Z,101564.71
2022-08-03T16:57:06.309Z,101562.15
2022-08-03T16:59:21.733Z,101564.88
2022-08-03T17:01:51.383Z,101563.30
2022-08-03T17:04:08.547Z,101569.02
2022-08-03T17:06:22.075Z,101568.21
2022-08-03T17:08:35.635Z,101563.96
2022-08-03T17:10:53.901Z,101560.65
2022-08-03T17:13:07.026Z,101564.11
2022-08-03T17:15:20.300Z,101563.49
2022-08-03T17:18:02.185Z,101563.79
2022-08-03T17:20:18.288Z,101564.52
2022-08-03T17:22:35.280Z,101563.78
2022-08-03T17:24:53.827Z,101560.05
2022-08-03T17:27:09.419Z,101559.77
2022-08-03T17:29:46.501Z,101566.52
2022-08-03T17:32:00.449Z,101562.30
2022-08-03T17:34:13.531Z,101561.98
2022-08-03T17:36:47.702Z,101562.59
2022-08-03T17:39:02.909Z,101565.90
2022-08-03T17:41:19.753Z,101566.21
2022-08-03T17:44:14.509Z,101565.02
2022-08-03T17:46:10.961Z,101564.24
2022-08-03T17:48:25.426Z,101559.57
2022-08-03T17:50:45.545Z,101565.84
2022-08-03T17:53:15.639Z,101563.98
2022-08-03T17:55:56.042Z,101565.96
2022-08-03T17:58:16.963Z,101564.71
2022-08-03T18:00:46.878Z,101563.15
2022-08-03T18:03:20.771Z,101560.67
2022-08-03T18:06:11.789Z,101562.37
2022-08-03T18:08:11.721Z,101563.58
2022-08-03T18:10:28.068Z,101567.00
2022-08-03T18:12:51.828Z,101561.45
2022-08-03T18:15:07.796Z,101563.09
2022-08-03T18:17:55.496Z,101561.79
2022-08-03T18:20:11.643Z,101561.07
2022-08-03T18:22:37.737Z,101560.98
2022-08-03T18:24:55.855Z,101557.02
2022-08-03T18:27:09.234Z,101562.70
2022-08-03T18:29:22.680Z,101560.89
2022-08-03T18:32:02.434Z,101561.24
2022-08-03T18:34:18.526Z,101562.61
2022-08-03T18:36:49.461Z,101562.61
2022-08-03T18:39:04.176Z,101562.21
2022-08-03T18:44:08.542Z,101566.80
2022-08-03T18:46:32.734Z,101567.06
2022-08-03T18:48:58.568Z,101568.31
2022-08-03T18:51:33.954Z,101564.80
2022-08-03T18:54:06.338Z,101564.58
2022-08-03T18:56:27.034Z,101562.40
2022-08-03T18:58:52.546Z,101558.39
2022-08-03T19:01:15.447Z,101562.27
2022-08-03T19:03:50.933Z,101553.20
2022-08-03T19:06:13.355Z,101557.38
2022-08-03T19:08:39.222Z,101553.24
2022-08-03T19:10:57.797Z,101547.44
2022-08-03T19:13:20.817Z,101546.58
2022-08-03T19:15:51.547Z,101544.23
2022-08-03T19:18:10.491Z,101546.30
2022-08-03T19:20:27.149Z,101544.73
2022-08-03T19:22:45.723Z,101542.70
2022-08-03T19:25:02.595Z,101539.83
2022-08-03T19:27:16.539Z,101539.48
2022-08-03T19:29:57.840Z,101534.53
2022-08-03T19:32:05.365Z,101535.40
2022-08-03T19:34:19.509Z,101532.73
2022-08-03T19:36:34.153Z,101534.23
2022-08-03T19:38:54.483Z,101537.40
2022-08-03T19:41:14.909Z,101531.66
2022-08-03T19:43:49.349Z,101527.67
2022-08-03T19:46:11.242Z,101526.42
2022-08-03T19:48:34.397Z,101528.98
2022-08-03T19:50:48.096Z,101522.13
2022-08-03T19:53:01.880Z,101528.42
2022-08-03T19:55:16.287Z,101528.27
2022-08-03T19:57:31.940Z,101522.23
2022-08-03T19:59:50.030Z,101526.59
2022-08-03T20:02:03.607Z,101521.70
2022-08-03T20:04:17.344Z,101522.73
2022-08-03T20:06:30.492Z,101517.40
2022-08-03T20:08:45.947Z,101520.77
2022-08-03T20:11:05.496Z,101516.23
2022-08-03T20:13:22.091Z,101520.23
2022-08-03T20:15:41.609Z,101521.66
2022-08-03T20:17:58.584Z,101524.00
2022-08-03T20:20:13.269Z,101524.60
2022-08-03T20:22:29.346Z,101524.40
2022-08-03T20:24:48.128Z,101525.30
2022-08-03T20:27:07.943Z,101521.88
2022-08-03T20:29:42.693Z,101519.83
2022-08-03T20:32:00.235Z,101522.58
2022-08-03T20:34:17.573Z,101520.77
2022-08-03T20:36:30.995Z,101520.15
2022-08-03T20:38:47.230Z,101520.31
2022-08-03T20:41:17.645Z,101524.80
2022-08-03T20:43:31.297Z,101526.13
2022-08-03T20:46:01.009Z,101528.08
2022-08-03T20:48:18.091Z,101525.51
2022-08-03T20:50:35.443Z,101520.74
2022-08-03T20:52:49.746Z,101522.58
2022-08-03T20:55:04.052Z,101525.05
2022-08-03T20:57:23.858Z,101525.48
2022-08-03T20:59:50.730Z,101520.00
2022-08-03T21:02:04.905Z,101519.59
2022-08-03T21:04:21.123Z,101518.65
2022-08-03T21:06:38.855Z,101519.29
2022-08-03T21:08:57.450Z,101516.42
2022-08-03T21:11:15.753Z,101518.15
2022-08-03T21:13:03.971Z,101564.52
2022-08-03T21:13:33.508Z,101513.75
2022-08-03T21:16:12.012Z,101512.05
2022-08-03T21:18:20.846Z,101513.23
2022-08-03T21:20:39.438Z,101513.98
2022-08-03T21:22:57.354Z,101513.06
2022-08-03T21:25:12.797Z,101509.23
2022-08-03T21:27:26.607Z,101510.75
2022-08-03T21:29:52.897Z,101511.02
2022-08-03T21:32:08.782Z,101515.67
2022-08-03T21:34:30.676Z,101513.58
2022-08-03T21:36:43.680Z,101511.93
2022-08-03T21:38:58.733Z,101513.42
2022-08-03T21:41:12.056Z,101516.38
2022-08-03T21:43:25.181Z,101509.17
2022-08-03T21:45:46.405Z,101511.55
2022-08-03T21:48:01.726Z,101510.34
2022-08-03T21:50:16.789Z,101514.80
2022-08-03T21:52:31.312Z,101515.13
2022-08-03T21:54:46.872Z,101511.39
2022-08-03T21:57:06.546Z,101508.45
2022-08-03T21:59:23.287Z,101511.41
2022-08-03T22:01:38.239Z,101511.99
2022-08-03T22:03:53.896Z,101518.06
2022-08-03T22:06:07.483Z,101516.79
2022-08-03T22:08:32.770Z,101516.45
2022-08-03T22:10:46.574Z,101518.09
2022-08-03T22:12:59.526Z,101517.66
2022-08-03T22:15:16.254Z,101515.11
2022-08-03T22:17:54.115Z,101516.02
2022-08-03T22:20:02.268Z,101514.06
2022-08-03T22:22:16.535Z,101512.01
2022-08-03T22:24:33.156Z,101515.77
2022-08-03T22:27:06.768Z,101511.68
2022-08-03T22:29:19.862Z,101509.92
2022-08-03T22:31:58.615Z,101505.21
2022-08-03T22:34:06.397Z,101501.14
2022-08-03T22:36:21.370Z,101500.83
2022-08-03T22:38:35.891Z,101503.06
2022-08-03T22:40:51.211Z,101500.92
2022-08-03T22:43:04.941Z,101501.66
2022-08-03T22:46:07.892Z,101503.86
2022-08-03T22:47:53.169Z,101500.82
2022-08-03T22:50:32.024Z,101501.03
2022-08-03T22:52:44.832Z,101496.49
2022-08-03T22:54:58.453Z,101489.17
2022-08-03T22:57:11.952Z,101490.48
2022-08-03T22:59:41.295Z,101490.80
2022-08-03T23:01:59.680Z,101488.86
2022-08-03T23:04:13.693Z,101482.64
2022-08-03T23:06:29.880Z,101492.45
2022-08-03T23:08:45.871Z,101493.09
2022-08-03T23:11:05.503Z,101487.51
2022-08-03T23:13:19.879Z,101483.02
2022-08-03T23:15:36.228Z,101482.84
2022-08-03T23:17:58.166Z,101482.04
2022-08-03T23:20:10.736Z,101485.45
2022-08-03T23:22:30.542Z,101485.84
2022-08-03T23:24:45.353Z,101481.64
2022-08-03T23:26:59.014Z,101483.89
2022-08-03T23:29:12.186Z,101483.40
2022-08-03T23:31:29.015Z,101487.02
2022-08-03T23:33:44.331Z,101490.91
2022-08-03T23:36:28.014Z,101488.13
2022-08-03T23:38:38.572Z,101489.21
2022-08-03T23:40:51.634Z,101488.89
2022-08-03T23:43:06.162Z,101490.64
2022-08-03T23:45:20.980Z,101490.16
2022-08-03T23:47:46.967Z,101491.80
2022-08-03T23:50:00.891Z,101493.17
2022-08-03T23:52:19.290Z,101493.79
2022-08-03T23:54:51.378Z,101494.68
2022-08-03T23:57:12.114Z,101500.33
2022-08-03T23:59:33.695Z,101504.98
